Time;durP1;ratioP1;P1;durP2;ratioP2;P2;SDS_P1;SDS_P2;PMS_P1;PMS_P2;Temp;Humidity;BMP_temperature;BMP_pressure;BME280_temperature;BME280_humidity;BME280_pressure;Samples;Min_cycle;Max_cycle;Signal;HPM_P1;HPM_P2
2022/01/05 00:00:37;;;;;;;11.90;1.13;;;;;;;;;;5042987;28;20561;-69
2022/01/05 00:03:04;;;;;;;5.80;1.23;;;;;;;;;;5030926;28;20491;-69
2022/01/05 00:05:30;;;;;;;6.77;1.37;;;;;;;;;;5044639;28;20188;-69
2022/01/05 00:07:55;;;;;;;7.77;1.20;;;;;;;;;;5047288;28;20177;-68
2022/01/05 00:10:21;;;;;;;3.90;1.40;;;;;;;;;;5045067;28;20684;-68
2022/01/05 00:12:46;;;;;;;13.57;1.70;;;;;;;;;;5046531;28;20645;-68
2022/01/05 00:15:11;;;;;;;8.27;1.70;;;;;;;;;;5041483;28;20264;-69
2022/01/05 00:17:37;;;;;;;14.13;1.80;;;;;;;;;;5041068;28;20449;-68
2022/01/05 00:20:04;;;;;;;10.93;1.83;;;;;;;;;;5040991;28;20199;-68
2022/01/05 00:22:29;;;;;;;12.37;1.60;;;;;;;;;;5047449;28;20190;-68
2022/01/05 00:24:55;;;;;;;6.70;1.33;;;;;;;;;;5045067;28;20178;-68
2022/01/05 00:27:20;;;;;;;12.47;2.77;;;;;;;;;;5046522;28;20195;-68
2022/01/05 00:29:46;;;;;;;10.77;2.07;;;;;;;;;;5043920;28;20276;-69
2022/01/05 00:32:11;;;;;;;15.73;2.50;;;;;;;;;;5042023;28;20208;-69
2022/01/05 00:34:37;;;;;;;11.83;1.80;;;;;;;;;;5045364;28;20201;-68
2022/01/05 00:37:03;;;;;;;9.67;2.03;;;;;;;;;;5044951;28;20235;-68
2022/01/05 00:39:28;;;;;;;8.30;1.60;;;;;;;;;;5041387;28;20186;-68
2022/01/05 00:41:54;;;;;;;11.87;1.70;;;;;;;;;;5044469;28;20198;-68
2022/01/05 00:44:19;;;;;;;7.40;1.87;;;;;;;;;;5047995;28;20189;-69
2022/01/05 00:46:46;;;;;;;10.00;1.47;;;;;;;;;;5044242;28;20590;-68
2022/01/05 00:49:12;;;;;;;11.73;2.27;;;;;;;;;;5048666;28;20182;-68
2022/01/05 00:51:38;;;;;;;13.00;2.07;;;;;;;;;;5045888;28;21883;-68
2022/01/05 00:54:04;;;;;;;8.93;2.00;;;;;;;;;;5045932;28;21000;-68
2022/01/05 00:56:29;;;;;;;11.03;1.87;;;;;;;;;;5044169;28;20563;-68
2022/01/05 00:58:55;;;;;;;12.57;1.77;;;;;;;;;;5045011;28;20580;-69
2022/01/05 01:01:20;;;;;;;11.37;1.80;;;;;;;;;;5042812;28;20520;-68
2022/01/05 01:03:46;;;;;;;12.33;1.87;;;;;;;;;;5041183;28;20189;-68
2022/01/05 01:06:11;;;;;;;13.93;2.27;;;;;;;;;;5040896;28;20216;-68
2022/01/05 01:08:37;;;;;;;10.23;1.37;;;;;;;;;;5044088;28;20211;-68
2022/01/05 01:11:02;;;;;;;7.17;1.57;;;;;;;;;;5037947;28;20536;-69
2022/01/05 01:13:27;;;;;;;14.77;2.00;;;;;;;;;;5046856;28;20211;-68
2022/01/05 01:15:53;;;;;;;6.60;1.93;;;;;;;;;;5041978;28;20235;-68
2022/01/05 01:18:19;;;;;;;8.23;1.90;;;;;;;;;;5044934;28;20255;-69
2022/01/05 01:20:47;;;;;;;10.90;1.50;;;;;;;;;;5044600;28;20620;-68
2022/01/05 01:23:13;;;;;;;11.80;2.00;;;;;;;;;;5039249;28;20675;-69
2022/01/05 01:25:39;;;;;;;9.43;1.60;;;;;;;;;;5046813;28;20204;-69
2022/01/05 01:28:04;;;;;;;8.37;1.60;;;;;;;;;;5045846;28;20182;-68
2022/01/05 01:30:31;;;;;;;12.80;2.07;;;;;;;;;;5045011;28;20206;-68
2022/01/05 01:32:57;;;;;;;11.03;1.53;;;;;;;;;;5043790;28;20624;-68
2022/01/05 01:35:23;;;;;;;7.53;1.50;;;;;;;;;;5043976;28;20186;-69
2022/01/05 01:37:48;;;;;;;9.93;1.30;;;;;;;;;;5043395;28;20236;-68
2022/01/05 01:40:14;;;;;;;13.30;1.60;;;;;;;;;;5046126;28;20526;-68
2022/01/05 01:42:40;;;;;;;11.30;1.53;;;;;;;;;;5037253;28;20228;-68
2022/01/05 01:45:05;;;;;;;6.57;1.60;;;;;;;;;;5043751;28;20215;-69
2022/01/05 01:47:31;;;;;;;6.27;1.20;;;;;;;;;;5041534;28;20177;-68
2022/01/05 01:49:56;;;;;;;8.63;1.30;;;;;;;;;;5046927;28;20496;-68
2022/01/05 01:52:21;;;;;;;10.87;1.80;;;;;;;;;;5039002;28;20621;-68
2022/01/05 01:54:47;;;;;;;8.70;2.03;;;;;;;;;;5043830;28;20211;-68
2022/01/05 01:57:13;;;;;;;7.63;1.67;;;;;;;;;;5045406;28;20240;-68
2022/01/05 01:59:38;;;;;;;10.77;1.53;;;;;;;;;;5048149;28;20189;-69
2022/01/05 02:02:04;;;;;;;7.27;1.40;;;;;;;;;;5042191;28;20533;-68
2022/01/05 02:04:29;;;;;;;15.67;1.67;;;;;;;;;;5041991;28;20186;-68
2022/01/05 02:06:55;;;;;;;9.20;1.30;;;;;;;;;;5043769;28;20273;-68
2022/01/05 02:09:20;;;;;;;7.67;1.60;;;;;;;;;;5044670;28;20577;-68
2022/01/05 02:11:46;;;;;;;10.57;1.40;;;;;;;;;;5043141;28;20666;-68
2022/01/05 02:14:11;;;;;;;6.27;1.37;;;;;;;;;;5041743;28;20207;-68
2022/01/05 02:16:42;;;;;;;5.57;1.30;;;;;;;;;;5042965;28;20644;-68
2022/01/05 02:19:07;;;;;;;8.37;1.30;;;;;;;;;;5041259;28;20688;-68
2022/01/05 02:21:35;;;;;;;10.07;1.57;;;;;;;;;;5044952;28;20200;-68
2022/01/05 02:24:02;;;;;;;5.73;1.30;;;;;;;;;;5042646;28;20218;-68
2022/01/05 02:26:27;;;;;;;11.90;1.67;;;;;;;;;;5046925;28;20185;-68
2022/01/05 02:28:53;;;;;;;11.43;1.97;;;;;;;;;;5042979;28;20182;-68
2022/01/05 02:31:18;;;;;;;9.87;1.53;;;;;;;;;;5043219;28;20208;-68
2022/01/05 02:33:45;;;;;;;8.07;1.27;;;;;;;;;;5044192;28;20201;-68
2022/01/05 02:36:13;;;;;;;5.63;1.10;;;;;;;;;;5044846;28;20182;-68
2022/01/05 02:38:39;;;;;;;6.80;1.50;;;;;;;;;;5044707;28;20231;-68
2022/01/05 02:41:09;;;;;;;10.73;1.23;;;;;;;;;;5039857;28;20240;-68
2022/01/05 02:43:36;;;;;;;11.20;1.43;;;;;;;;;;5044742;28;20616;-68
2022/01/05 02:46:03;;;;;;;9.93;1.10;;;;;;;;;;5044874;28;20201;-68
2022/01/05 02:48:28;;;;;;;10.37;1.43;;;;;;;;;;5051425;28;20174;-68
2022/01/05 02:50:57;;;;;;;12.00;1.23;;;;;;;;;;5045023;28;20278;-67
2022/01/05 02:53:23;;;;;;;7.77;1.33;;;;;;;;;;5048588;28;20574;-67
2022/01/05 02:55:49;;;;;;;11.37;1.30;;;;;;;;;;5043574;28;20576;-69
2022/01/05 02:58:15;;;;;;;8.00;1.30;;;;;;;;;;5051123;28;20200;-69
2022/01/05 03:00:40;;;;;;;10.20;1.50;;;;;;;;;;5045761;28;20227;-68
2022/01/05 03:03:06;;;;;;;7.03;1.10;;;;;;;;;;5050097;28;20196;-68
2022/01/05 03:05:31;;;;;;;8.90;1.23;;;;;;;;;;5046510;28;20388;-68
2022/01/05 03:07:56;;;;;;;8.50;1.20;;;;;;;;;;5049464;28;20229;-68
2022/01/05 03:10:22;;;;;;;10.10;1.80;;;;;;;;;;5045708;28;20640;-68
2022/01/05 03:12:47;;;;;;;11.37;1.60;;;;;;;;;;5048457;28;20189;-68
2022/01/05 03:15:13;;;;;;;12.33;1.23;;;;;;;;;;5039852;28;20181;-68
2022/01/05 03:17:39;;;;;;;14.23;1.67;;;;;;;;;;5046829;28;20580;-67
2022/01/05 03:20:06;;;;;;;16.03;1.43;;;;;;;;;;5038043;28;20269;-68
2022/01/05 03:22:31;;;;;;;8.73;1.37;;;;;;;;;;5046284;28;20190;-68
2022/01/05 03:24:56;;;;;;;8.43;1.93;;;;;;;;;;5047899;28;20246;-68
2022/01/05 03:27:22;;;;;;;11.80;1.70;;;;;;;;;;5044781;28;20185;-69
2022/01/05 03:29:47;;;;;;;12.33;2.27;;;;;;;;;;5048312;28;20254;-68
2022/01/05 03:32:13;;;;;;;12.77;1.97;;;;;;;;;;5046502;28;20206;-68
2022/01/05 03:34:38;;;;;;;12.50;1.37;;;;;;;;;;5048440;28;20335;-67
2022/01/05 03:37:04;;;;;;;12.47;1.77;;;;;;;;;;5045892;28;20189;-67
2022/01/05 03:39:29;;;;;;;12.90;1.50;;;;;;;;;;5050615;28;20490;-68
2022/01/05 03:41:55;;;;;;;9.03;1.70;;;;;;;;;;5045351;28;20484;-67
2022/01/05 03:44:20;;;;;;;8.27;1.40;;;;;;;;;;5046710;28;20213;-69
2022/01/05 03:46:46;;;;;;;10.07;1.37;;;;;;;;;;5043534;28;20583;-68
2022/01/05 03:49:11;;;;;;;8.00;1.77;;;;;;;;;;5048871;28;20185;-68
2022/01/05 03:51:36;;;;;;;11.03;1.57;;;;;;;;;;5040056;28;20227;-68
2022/01/05 03:54:02;;;;;;;8.63;1.40;;;;;;;;;;5048882;28;20193;-67
2022/01/05 03:56:27;;;;;;;7.60;1.57;;;;;;;;;;5043666;28;20310;-67
2022/01/05 03:58:53;;;;;;;12.90;2.00;;;;;;;;;;5044641;28;20244;-67
2022/01/05 04:01:18;;;;;;;12.90;1.87;;;;;;;;;;5045639;28;20620;-68
2022/01/05 04:03:43;;;;;;;11.77;1.83;;;;;;;;;;5046268;28;20578;-68
2022/01/05 04:06:09;;;;;;;13.10;1.67;;;;;;;;;;5045561;28;20662;-69
2022/01/05 04:08:34;;;;;;;10.20;1.63;;;;;;;;;;5044703;28;20188;-68
2022/01/05 04:11:00;;;;;;;10.90;1.70;;;;;;;;;;5047333;28;20228;-68
2022/01/05 04:13:25;;;;;;;12.53;1.93;;;;;;;;;;5043542;28;20502;-68
2022/01/05 04:15:51;;;;;;;11.97;2.03;;;;;;;;;;5046855;28;20280;-69
2022/01/05 04:18:16;;;;;;;10.07;1.93;;;;;;;;;;5043846;28;20514;-69
2022/01/05 04:20:41;;;;;;;12.53;2.10;;;;;;;;;;5046323;28;20219;-68
2022/01/05 04:23:07;;;;;;;10.60;1.60;;;;;;;;;;5046194;28;20268;-67
2022/01/05 04:25:33;;;;;;;6.73;1.50;;;;;;;;;;5048202;28;20205;-68
2022/01/05 04:27:59;;;;;;;9.93;1.50;;;;;;;;;;5040940;28;20184;-67
2022/01/05 04:30:25;;;;;;;15.73;2.30;;;;;;;;;;5043416;28;20701;-68
2022/01/05 04:32:50;;;;;;;11.27;1.77;;;;;;;;;;5046081;28;20257;-69
2022/01/05 04:35:16;;;;;;;11.63;1.87;;;;;;;;;;5047027;28;21366;-68
2022/01/05 04:37:41;;;;;;;11.17;1.40;;;;;;;;;;5036386;28;20220;-68
2022/01/05 04:40:08;;;;;;;10.47;1.97;;;;;;;;;;5048849;28;20200;-68
2022/01/05 04:42:33;;;;;;;13.97;2.33;;;;;;;;;;5042848;28;20188;-68
2022/01/05 04:44:59;;;;;;;17.00;2.13;;;;;;;;;;5046180;28;20189;-68
2022/01/05 04:47:24;;;;;;;11.97;1.97;;;;;;;;;;5041275;28;20542;-67
2022/01/05 04:49:50;;;;;;;18.33;2.07;;;;;;;;;;5042503;28;20190;-68
2022/01/05 04:52:15;;;;;;;15.63;2.30;;;;;;;;;;5044829;28;20186;-68
2022/01/05 04:54:40;;;;;;;12.57;1.90;;;;;;;;;;5046796;28;20497;-68
2022/01/05 04:57:06;;;;;;;9.90;2.23;;;;;;;;;;5044201;28;20320;-68
2022/01/05 04:59:32;;;;;;;9.50;1.43;;;;;;;;;;5045784;28;20181;-68
2022/01/05 05:01:58;;;;;;;15.87;1.80;;;;;;;;;;5045268;28;20185;-69
2022/01/05 05:04:23;;;;;;;10.90;1.80;;;;;;;;;;5042740;28;20181;-68
2022/01/05 05:06:49;;;;;;;10.13;1.80;;;;;;;;;;5048278;28;20208;-68
2022/01/05 05:09:15;;;;;;;8.33;1.90;;;;;;;;;;5043760;28;20213;-68
2022/01/05 05:11:41;;;;;;;17.67;2.00;;;;;;;;;;5046715;28;20271;-68
2022/01/05 05:14:06;;;;;;;15.50;2.30;;;;;;;;;;5043969;28;20259;-68
2022/01/05 05:16:31;;;;;;;12.60;3.07;;;;;;;;;;5047586;28;20590;-68
2022/01/05 05:18:57;;;;;;;15.87;2.00;;;;;;;;;;5043180;28;20686;-68
2022/01/05 05:21:22;;;;;;;8.20;1.63;;;;;;;;;;5048521;28;20185;-68
2022/01/05 05:23:47;;;;;;;12.30;2.57;;;;;;;;;;5041379;28;20323;-68
2022/01/05 05:26:13;;;;;;;18.40;2.27;;;;;;;;;;5047652;28;20197;-68
2022/01/05 05:28:38;;;;;;;15.43;2.00;;;;;;;;;;5044028;28;20185;-68
2022/01/05 05:31:03;;;;;;;12.77;2.20;;;;;;;;;;5044967;28;20647;-68
2022/01/05 05:33:29;;;;;;;20.03;2.43;;;;;;;;;;5040202;28;20567;-68
2022/01/05 05:35:54;;;;;;;9.73;2.40;;;;;;;;;;5042616;28;20642;-68
2022/01/05 05:38:19;;;;;;;9.87;1.80;;;;;;;;;;5040177;28;20343;-68
2022/01/05 05:40:45;;;;;;;12.27;2.07;;;;;;;;;;5045177;28;20193;-69
2022/01/05 05:43:11;;;;;;;14.27;2.17;;;;;;;;;;5043684;28;20193;-68
2022/01/05 05:45:37;;;;;;;13.33;2.10;;;;;;;;;;5045947;28;20260;-69
2022/01/05 05:48:03;;;;;;;16.33;2.30;;;;;;;;;;5046259;28;20277;-69
2022/01/05 05:50:29;;;;;;;12.30;2.17;;;;;;;;;;5042846;28;20321;-68
2022/01/05 05:52:54;;;;;;;15.70;2.20;;;;;;;;;;5046363;28;20272;-69
2022/01/05 05:55:20;;;;;;;12.00;2.13;;;;;;;;;;5041299;28;20276;-68
2022/01/05 05:57:45;;;;;;;12.97;2.00;;;;;;;;;;5048229;28;20731;-69
2022/01/05 06:00:11;;;;;;;16.90;2.20;;;;;;;;;;5043386;28;20192;-69
2022/01/05 06:02:37;;;;;;;20.37;2.73;;;;;;;;;;5044587;28;20501;-69
2022/01/05 06:05:03;;;;;;;17.70;1.77;;;;;;;;;;5046038;28;20688;-67
2022/01/05 06:07:28;;;;;;;19.90;2.07;;;;;;;;;;5040111;28;20222;-68
2022/01/05 06:09:53;;;;;;;16.63;2.03;;;;;;;;;;5044453;28;20217;-68
2022/01/05 06:12:19;;;;;;;14.30;2.20;;;;;;;;;;5041331;28;20198;-69
2022/01/05 06:14:44;;;;;;;13.47;1.97;;;;;;;;;;5037805;28;20185;-68
2022/01/05 06:17:09;;;;;;;10.93;2.13;;;;;;;;;;5044080;28;20250;-68
2022/01/05 06:19:35;;;;;;;10.17;1.77;;;;;;;;;;5043158;28;20189;-68
2022/01/05 06:22:00;;;;;;;18.83;2.70;;;;;;;;;;5041466;28;20327;-68
2022/01/05 06:24:26;;;;;;;17.77;2.67;;;;;;;;;;5042983;28;20181;-69
2022/01/05 06:26:52;;;;;;;15.37;2.40;;;;;;;;;;5043522;28;20229;-68
2022/01/05 06:29:19;;;;;;;24.87;5.10;;;;;;;;;;5045638;28;20185;-68
2022/01/05 06:31:44;;;;;;;15.03;2.77;;;;;;;;;;5043290;28;20205;-68
2022/01/05 06:34:10;;;;;;;12.10;2.13;;;;;;;;;;5044013;28;20193;-68
2022/01/05 06:36:35;;;;;;;9.80;2.20;;;;;;;;;;5043000;28;20255;-68
2022/01/05 06:39:02;;;;;;;9.43;2.10;;;;;;;;;;5041101;28;20580;-68
2022/01/05 06:41:27;;;;;;;24.43;2.97;;;;;;;;;;5043275;28;20196;-70
2022/01/05 06:43:52;;;;;;;13.17;2.30;;;;;;;;;;5043895;28;20284;-69
2022/01/05 06:46:18;;;;;;;10.53;2.20;;;;;;;;;;5042198;28;20181;-69
2022/01/05 06:48:43;;;;;;;12.77;2.40;;;;;;;;;;5041928;28;20587;-68
2022/01/05 06:51:09;;;;;;;16.53;2.53;;;;;;;;;;5042276;28;20209;-68
2022/01/05 06:53:34;;;;;;;15.23;2.30;;;;;;;;;;5041144;28;20186;-68
2022/01/05 06:55:59;;;;;;;19.37;2.43;;;;;;;;;;5043387;28;20217;-68
2022/01/05 06:58:25;;;;;;;19.20;2.30;;;;;;;;;;5042570;28;20681;-70
2022/01/05 07:00:50;;;;;;;20.10;2.40;;;;;;;;;;5043327;28;20238;-69
2022/01/05 07:03:15;;;;;;;17.80;2.37;;;;;;;;;;5040218;28;20670;-68
2022/01/05 07:05:41;;;;;;;16.33;2.53;;;;;;;;;;5046236;28;20200;-69
2022/01/05 07:08:07;;;;;;;11.87;2.17;;;;;;;;;;5042623;28;20190;-69
2022/01/05 07:10:32;;;;;;;17.10;2.40;;;;;;;;;;5042607;28;20182;-69
2022/01/05 07:12:57;;;;;;;12.53;2.40;;;;;;;;;;5041090;28;20562;-69
2022/01/05 07:15:25;;;;;;;15.80;3.27;;;;;;;;;;5043794;28;20627;-69
2022/01/05 07:17:50;;;;;;;19.10;2.90;;;;;;;;;;5040684;28;20668;-68
2022/01/05 07:20:16;;;;;;;19.23;3.23;;;;;;;;;;5042605;28;20189;-68
2022/01/05 07:22:42;;;;;;;17.83;2.70;;;;;;;;;;5040161;28;20182;-69
2022/01/05 07:25:08;;;;;;;16.03;2.83;;;;;;;;;;5042909;28;20587;-69
2022/01/05 07:27:34;;;;;;;16.37;2.57;;;;;;;;;;5044261;28;20680;-70
2022/01/05 07:29:59;;;;;;;16.20;2.40;;;;;;;;;;5043660;28;20265;-73
2022/01/05 07:32:24;;;;;;;25.07;2.80;;;;;;;;;;5039952;28;20234;-75
2022/01/05 07:34:50;;;;;;;17.97;3.10;;;;;;;;;;5046101;28;20342;-75
2022/01/05 07:37:15;;;;;;;18.83;2.33;;;;;;;;;;5046004;28;20209;-75
2022/01/05 07:39:40;;;;;;;15.10;2.80;;;;;;;;;;5044052;28;20192;-74
2022/01/05 07:42:07;;;;;;;18.73;2.80;;;;;;;;;;5047311;28;20766;-73
2022/01/05 07:44:32;;;;;;;17.47;3.00;;;;;;;;;;5044822;28;20603;-73
2022/01/05 07:46:58;;;;;;;18.63;2.93;;;;;;;;;;5047446;28;20932;-73
2022/01/05 07:49:23;;;;;;;20.33;3.40;;;;;;;;;;5045514;28;20174;-73
2022/01/05 07:51:48;;;;;;;15.50;2.63;;;;;;;;;;5046798;28;20254;-73
2022/01/05 07:54:14;;;;;;;16.37;2.87;;;;;;;;;;5045209;28;20553;-73
2022/01/05 07:56:39;;;;;;;13.80;2.83;;;;;;;;;;5047202;28;20232;-72
2022/01/05 07:59:05;;;;;;;13.47;2.80;;;;;;;;;;5042061;28;20205;-73
2022/01/05 08:01:30;;;;;;;22.23;3.10;;;;;;;;;;5046567;28;20177;-72
2022/01/05 08:03:56;;;;;;;12.13;2.60;;;;;;;;;;5041459;28;20178;-72
2022/01/05 08:06:22;;;;;;;20.67;3.90;;;;;;;;;;5046352;28;20185;-73
2022/01/05 08:08:48;;;;;;;15.20;3.30;;;;;;;;;;5044886;28;20186;-74
2022/01/05 08:11:14;;;;;;;16.37;3.03;;;;;;;;;;5045208;28;20584;-74
2022/01/05 08:13:39;;;;;;;19.07;3.50;;;;;;;;;;5045675;28;20268;-74
2022/01/05 08:16:05;;;;;;;23.23;3.27;;;;;;;;;;5042301;28;20269;-73
2022/01/05 08:18:31;;;;;;;25.37;3.43;;;;;;;;;;5042244;28;20201;-74
2022/01/05 08:20:56;;;;;;;11.83;3.10;;;;;;;;;;5046103;28;20189;-76
2022/01/05 08:23:23;;;;;;;20.60;3.70;;;;;;;;;;5045249;28;20181;-75
2022/01/05 08:25:50;;;;;;;13.23;3.07;;;;;;;;;;5047467;28;20193;-73
2022/01/05 08:28:16;;;;;;;13.07;2.90;;;;;;;;;;5044401;28;20171;-73
2022/01/05 08:30:45;;;;;;;20.57;3.70;;;;;;;;;;5044875;28;20205;-74
2022/01/05 08:33:12;;;;;;;12.93;3.30;;;;;;;;;;5044872;28;20173;-74
2022/01/05 08:35:38;;;;;;;12.30;3.17;;;;;;;;;;5048644;28;20173;-72
2022/01/05 08:38:04;;;;;;;14.83;2.90;;;;;;;;;;5044201;28;20198;-76
2022/01/05 08:40:31;;;;;;;12.83;3.30;;;;;;;;;;5045239;28;20188;-73
2022/01/05 08:42:57;;;;;;;18.13;3.73;;;;;;;;;;5044066;28;20193;-73
2022/01/05 08:45:23;;;;;;;15.00;2.80;;;;;;;;;;5043762;28;20201;-72
2022/01/05 08:47:51;;;;;;;15.03;4.00;;;;;;;;;;5036653;28;20185;-75
2022/01/05 08:50:19;;;;;;;21.17;3.80;;;;;;;;;;5044594;28;20195;-75
2022/01/05 08:52:45;;;;;;;14.53;3.03;;;;;;;;;;5047929;28;20196;-72
2022/01/05 08:55:12;;;;;;;13.53;2.90;;;;;;;;;;5042061;28;20265;-71
2022/01/05 08:57:38;;;;;;;10.40;2.27;;;;;;;;;;5043598;28;20712;-73
2022/01/05 09:00:05;;;;;;;15.00;2.63;;;;;;;;;;5040521;28;20276;-73
2022/01/05 09:02:31;;;;;;;17.43;3.03;;;;;;;;;;5047815;28;20221;-73
2022/01/05 09:04:56;;;;;;;12.63;2.40;;;;;;;;;;5043481;28;20708;-73
2022/01/05 09:07:22;;;;;;;12.93;2.37;;;;;;;;;;5047037;28;20272;-73
2022/01/05 09:09:47;;;;;;;8.73;2.13;;;;;;;;;;5044443;28;20231;-73
2022/01/05 09:12:12;;;;;;;7.70;1.80;;;;;;;;;;5044180;28;20644;-72
2022/01/05 09:14:39;;;;;;;11.30;2.40;;;;;;;;;;5040364;28;20213;-72
2022/01/05 09:17:04;;;;;;;11.17;2.37;;;;;;;;;;5041282;28;20592;-73
2022/01/05 09:19:30;;;;;;;13.43;2.40;;;;;;;;;;5042611;28;20309;-74
2022/01/05 09:21:55;;;;;;;8.60;2.10;;;;;;;;;;5045289;28;20262;-73
2022/01/05 09:24:21;;;;;;;12.10;2.70;;;;;;;;;;5045671;28;20655;-74
2022/01/05 09:26:46;;;;;;;11.97;2.50;;;;;;;;;;5044701;28;20185;-75
2022/01/05 09:29:11;;;;;;;9.30;2.50;;;;;;;;;;5040272;28;20197;-73
2022/01/05 09:31:37;;;;;;;9.57;2.43;;;;;;;;;;5045064;28;20613;-72
2022/01/05 09:34:02;;;;;;;11.13;2.33;;;;;;;;;;5044012;28;20181;-73
2022/01/05 09:36:45;;;;;;;17.53;2.80;;;;;;;;;;5046369;28;20299;-73
2022/01/05 09:41:58;;;;;;;9.70;2.30;;;;;;;;;;5042786;28;20655;-73
2022/01/05 09:44:41;;;;;;;19.20;2.70;;;;;;;;;;5044866;28;20285;-75
2022/01/05 09:47:29;;;;;;;10.77;2.40;;;;;;;;;;5041439;28;20205;-74
2022/01/05 09:50:07;;;;;;;18.60;2.70;;;;;;;;;;5044077;28;20653;-72
2022/01/05 09:52:40;;;;;;;16.23;2.83;;;;;;;;;;5035086;28;20929;-73
2022/01/05 09:55:08;;;;;;;15.67;2.50;;;;;;;;;;5044388;28;20683;-73
2022/01/05 09:57:35;;;;;;;10.83;2.60;;;;;;;;;;5045320;28;20287;-71
2022/01/05 10:00:01;;;;;;;14.50;2.50;;;;;;;;;;5041935;28;20200;-73
2022/01/05 10:02:26;;;;;;;10.07;2.40;;;;;;;;;;5041581;28;20648;-71
2022/01/05 10:04:53;;;;;;;11.57;3.13;;;;;;;;;;5044542;28;20662;-71
2022/01/05 10:07:19;;;;;;;18.53;3.03;;;;;;;;;;5045715;28;20746;-72
2022/01/05 10:09:45;;;;;;;11.43;2.77;;;;;;;;;;5043547;28;20177;-73
2022/01/05 10:12:13;;;;;;;12.27;2.40;;;;;;;;;;5041475;28;20193;-70
2022/01/05 10:14:44;;;;;;;21.60;3.13;;;;;;;;;;5041428;28;20668;-71
2022/01/05 10:17:15;;;;;;;13.60;2.47;;;;;;;;;;5042039;28;20520;-71
2022/01/05 10:19:41;;;;;;;15.43;2.30;;;;;;;;;;5045299;28;20572;-70
2022/01/05 10:22:33;;;;;;;16.80;2.50;;;;;;;;;;5042337;28;20300;-71
2022/01/05 10:25:00;;;;;;;14.47;2.40;;;;;;;;;;5043409;28;20271;-70
2022/01/05 10:27:27;;;;;;;15.67;2.73;;;;;;;;;;5043203;28;20177;-70
2022/01/05 10:29:55;;;;;;;11.27;2.30;;;;;;;;;;5040378;28;20809;-70
2022/01/05 10:32:22;;;;;;;23.63;2.63;;;;;;;;;;5043139;28;20268;-71
2022/01/05 10:35:17;;;;;;;17.53;2.27;;;;;;;;;;5046692;28;20193;-70
2022/01/05 10:37:45;;;;;;;14.80;2.40;;;;;;;;;;5032083;28;20189;-70
2022/01/05 10:40:14;;;;;;;21.00;2.77;;;;;;;;;;5045015;28;20190;-70
2022/01/05 10:42:41;;;;;;;12.03;2.23;;;;;;;;;;5043900;28;20173;-69
2022/01/05 10:45:10;;;;;;;18.60;2.40;;;;;;;;;;5041063;28;20183;-69
2022/01/05 10:47:36;;;;;;;15.30;2.30;;;;;;;;;;5045155;28;20209;-69
2022/01/05 10:50:05;;;;;;;20.43;2.30;;;;;;;;;;5044623;28;20196;-70
2022/01/05 10:52:35;;;;;;;17.50;2.30;;;;;;;;;;5045625;28;20192;-70
2022/01/05 10:55:12;;;;;;;14.90;2.10;;;;;;;;;;5042177;28;20566;-70
2022/01/05 10:57:38;;;;;;;12.33;2.07;;;;;;;;;;5043400;28;20770;-70
2022/01/05 11:00:06;;;;;;;13.50;1.63;;;;;;;;;;5042286;28;20177;-70
2022/01/05 11:02:34;;;;;;;6.33;1.20;;;;;;;;;;5043734;28;20219;-69
2022/01/05 11:05:06;;;;;;;12.73;2.07;;;;;;;;;;5041373;28;20189;-69
2022/01/05 11:07:32;;;;;;;11.90;1.57;;;;;;;;;;5045306;28;20272;-69
2022/01/05 11:10:07;;;;;;;5.63;0.80;;;;;;;;;;5043725;28;20616;-70
2022/01/05 11:12:38;;;;;;;5.33;0.77;;;;;;;;;;5042678;28;20185;-69
2022/01/05 11:15:27;;;;;;;8.67;0.83;;;;;;;;;;5045540;28;20207;-69
2022/01/05 11:18:18;;;;;;;7.23;0.97;;;;;;;;;;5046825;28;20201;-69
2022/01/05 11:20:53;;;;;;;8.83;1.03;;;;;;;;;;5040969;28;20225;-70
2022/01/05 11:23:20;;;;;;;10.13;1.23;;;;;;;;;;5043509;28;20187;-69
2022/01/05 11:25:47;;;;;;;4.70;1.10;;;;;;;;;;5041992;28;20637;-69
2022/01/05 11:28:14;;;;;;;7.67;0.90;;;;;;;;;;5045143;28;20462;-69
2022/01/05 11:30:42;;;;;;;11.27;1.90;;;;;;;;;;5041391;28;20300;-69
2022/01/05 11:33:08;;;;;;;7.00;1.00;;;;;;;;;;5047036;28;20625;-69
2022/01/05 11:35:34;;;;;;;8.73;1.90;;;;;;;;;;5045013;28;20704;-68
2022/01/05 11:38:00;;;;;;;6.83;1.07;;;;;;;;;;5044809;28;20287;-69
2022/01/05 11:40:29;;;;;;;7.87;1.30;;;;;;;;;;5042723;28;20345;-68
2022/01/05 11:42:59;;;;;;;11.23;1.33;;;;;;;;;;5046434;28;20272;-69
2022/01/05 11:45:47;;;;;;;13.03;2.13;;;;;;;;;;5048251;28;20210;-69
2022/01/05 11:48:26;;;;;;;13.77;1.57;;;;;;;;;;5047831;28;20277;-68
2022/01/05 11:50:56;;;;;;;14.57;2.07;;;;;;;;;;5045628;28;20177;-69
2022/01/05 11:53:34;;;;;;;17.67;2.27;;;;;;;;;;5045386;28;20535;-69
2022/01/05 11:56:01;;;;;;;12.07;1.87;;;;;;;;;;5041433;28;20233;-69
2022/01/05 11:58:29;;;;;;;13.03;2.13;;;;;;;;;;5042945;28;20225;-69
2022/01/05 12:01:12;;;;;;;18.07;2.30;;;;;;;;;;5045251;28;20187;-69
2022/01/05 12:03:50;;;;;;;14.50;2.20;;;;;;;;;;5043346;28;20190;-69
2022/01/05 12:06:15;;;;;;;13.87;2.00;;;;;;;;;;5045503;28;20173;-69
2022/01/05 12:08:41;;;;;;;8.83;2.37;;;;;;;;;;5045343;28;20185;-70
2022/01/05 12:11:33;;;;;;;18.13;2.43;;;;;;;;;;5044763;28;20193;-69
2022/01/05 12:14:01;;;;;;;15.53;2.50;;;;;;;;;;5042967;28;20307;-69
2022/01/05 12:16:27;;;;;;;14.73;1.90;;;;;;;;;;5047291;28;20610;-70
2022/01/05 12:19:08;;;;;;;15.07;1.87;;;;;;;;;;5043911;28;20308;-69
2022/01/05 12:21:45;;;;;;;15.77;2.13;;;;;;;;;;5044331;28;20578;-70
2022/01/05 12:24:11;;;;;;;16.70;2.17;;;;;;;;;;5043359;28;20193;-70
2022/01/05 12:26:37;;;;;;;18.50;2.57;;;;;;;;;;5035968;28;20189;-72
2022/01/05 12:29:03;;;;;;;14.07;1.77;;;;;;;;;;5039323;28;20181;-75
2022/01/05 12:31:50;;;;;;;9.93;1.47;;;;;;;;;;5043763;28;20255;-76
2022/01/05 12:34:53;;;;;;;13.93;1.40;;;;;;;;;;5045761;28;20197;-76
2022/01/05 12:37:46;;;;;;;12.37;1.60;;;;;;;;;;5038895;28;20210;-74
2022/01/05 12:40:34;;;;;;;11.43;1.93;;;;;;;;;;5045559;28;20688;-75
2022/01/05 12:43:08;;;;;;;16.87;2.60;;;;;;;;;;5047572;28;20231;-73
2022/01/05 12:45:50;;;;;;;15.47;1.87;;;;;;;;;;5045234;28;20189;-74
2022/01/05 12:48:35;;;;;;;12.07;2.00;;;;;;;;;;5042381;28;20197;-72
2022/01/05 12:51:16;;;;;;;20.03;2.80;;;;;;;;;;5043602;28;20247;-70
2022/01/05 12:53:56;;;;;;;14.03;2.23;;;;;;;;;;5041629;28;20546;-69
2022/01/05 12:56:24;;;;;;;17.10;3.20;;;;;;;;;;5035994;28;20232;-70
2022/01/05 12:58:51;;;;;;;19.37;2.47;;;;;;;;;;5040500;28;20220;-70
2022/01/05 13:01:18;;;;;;;18.17;2.13;;;;;;;;;;5042753;28;20729;-69
2022/01/05 13:03:43;;;;;;;12.67;2.37;;;;;;;;;;5042873;28;20617;-69
2022/01/05 13:06:18;;;;;;;17.33;2.10;;;;;;;;;;5041367;28;20195;-69
2022/01/05 13:08:59;;;;;;;17.17;2.33;;;;;;;;;;5044173;28;20180;-70
2022/01/05 13:11:37;;;;;;;12.10;1.90;;;;;;;;;;5043094;28;20683;-71
2022/01/05 13:14:24;;;;;;;15.93;2.07;;;;;;;;;;5038872;28;20204;-69
2022/01/05 13:16:51;;;;;;;13.50;2.27;;;;;;;;;;5044876;28;20272;-70
2022/01/05 13:19:31;;;;;;;16.23;2.20;;;;;;;;;;5043289;28;20386;-70
2022/01/05 13:21:59;;;;;;;17.83;2.77;;;;;;;;;;5044203;28;20188;-70
2022/01/05 13:24:45;;;;;;;17.60;1.87;;;;;;;;;;5045063;28;20279;-70
2022/01/05 13:27:12;;;;;;;11.23;1.70;;;;;;;;;;5044414;28;20216;-69
2022/01/05 13:29:37;;;;;;;11.50;1.70;;;;;;;;;;5043757;28;20654;-69
2022/01/05 13:32:08;;;;;;;15.70;2.10;;;;;;;;;;5043521;28;20224;-69
2022/01/05 13:34:36;;;;;;;13.80;1.67;;;;;;;;;;5042843;28;20189;-68
2022/01/05 13:37:05;;;;;;;13.67;2.17;;;;;;;;;;5040324;28;20197;-70
2022/01/05 13:39:45;;;;;;;13.80;1.40;;;;;;;;;;4346376;28;10000815;-70
2022/01/05 13:42:18;;;;;;;10.87;1.50;;;;;;;;;;5041274;28;20200;-71
2022/01/05 13:44:46;;;;;;;14.70;2.60;;;;;;;;;;5034957;28;20517;-72
2022/01/05 13:47:15;;;;;;;15.73;1.77;;;;;;;;;;5039266;28;20199;-72
2022/01/05 13:49:41;;;;;;;9.27;1.53;;;;;;;;;;5038489;28;20181;-72
2022/01/05 13:52:10;;;;;;;10.33;1.27;;;;;;;;;;5040418;28;20192;-71
2022/01/05 13:54:41;;;;;;;11.50;1.47;;;;;;;;;;5039208;28;20632;-71
2022/01/05 13:57:25;;;;;;;6.80;1.17;;;;;;;;;;5036169;28;20684;-70
2022/01/05 13:59:50;;;;;;;7.97;1.37;;;;;;;;;;5037553;28;20221;-70
2022/01/05 14:02:16;;;;;;;10.43;1.30;;;;;;;;;;5039231;28;20214;-69
2022/01/05 14:04:57;;;;;;;15.10;2.17;;;;;;;;;;5036502;28;20193;-69
2022/01/05 14:07:24;;;;;;;11.57;1.90;;;;;;;;;;5036469;28;20190;-69
2022/01/05 14:10:10;;;;;;;11.47;1.63;;;;;;;;;;5043063;28;20504;-70
2022/01/05 14:12:45;;;;;;;12.10;1.93;;;;;;;;;;5034546;28;20263;-70
2022/01/05 14:15:12;;;;;;;20.30;2.27;;;;;;;;;;5039695;28;20621;-69
2022/01/05 14:17:38;;;;;;;15.57;1.73;;;;;;;;;;5033881;28;20394;-69
2022/01/05 14:20:21;;;;;;;11.97;1.70;;;;;;;;;;5038482;28;20217;-70
2022/01/05 14:23:09;;;;;;;10.87;1.60;;;;;;;;;;5044543;28;20189;-69
2022/01/05 14:25:39;;;;;;;12.50;1.93;;;;;;;;;;5037931;28;20181;-69
2022/01/05 14:28:24;;;;;;;12.53;1.70;;;;;;;;;;5041885;28;20189;-69
2022/01/05 14:30:52;;;;;;;17.97;2.43;;;;;;;;;;5040076;28;20687;-69
2022/01/05 14:33:53;;;;;;;15.30;1.97;;;;;;;;;;5040414;28;20196;-68
2022/01/05 14:36:27;;;;;;;19.50;3.03;;;;;;;;;;5034047;28;20348;-69
2022/01/05 14:39:04;;;;;;;20.80;2.37;;;;;;;;;;5041919;28;20209;-69
2022/01/05 14:41:37;;;;;;;16.60;2.40;;;;;;;;;;5040102;28;20310;-69